Terminal Aerodrome Forecast
Issued by NWS

Home | Current Version | Previous Version | Text Only | Print | Product List | Glossary On
Versions: 1 2 3 4 5 6 7 8 9 10 11 12 13
000
FTUS42 KMLB 201100
TAFISM
TAF
KISM 201130Z 2012/2112 VRB03KT P6SM SCT250
     FM201500 16005KT P6SM SCT100 BKN250
     FM202200 09003KT P6SM BKN080 OVC120
     FM210900 VRB03KT 5SM BR BKN025 OVC060=

USA.gov is the U.S. government's official web portal to all federal, state and local government web resources and services.